Time;durP1;ratioP1;P1;durP2;ratioP2;P2;SDS_P1;SDS_P2;PMS_P1;PMS_P2;Temp;Humidity;BMP_temperature;BMP_pressure;BME280_temperature;BME280_humidity;BME280_pressure;Samples;Min_cycle;Max_cycle;Signal;HPM_P1;HPM_P2
2021/06/22 00:00:52;;;;;;;1.00;0.90;;;;;26.70;100305.00;;;;2079548;28;20214;-57
2021/06/22 00:01:52;;;;;;;0.80;0.80;;;;;26.70;100322.00;;;;2079485;28;20569;-58
2021/06/22 00:02:53;;;;;;;0.83;0.63;;;;;26.60;100317.00;;;;2078293;28;20598;-58
2021/06/22 00:03:53;;;;;;;0.70;0.70;;;;;26.60;100325.00;;;;2072242;28;20302;-58
2021/06/22 00:04:53;;;;;;;1.07;0.80;;;;;26.60;100324.00;;;;2075915;28;20241;-60
2021/06/22 00:05:54;;;;;;;0.80;0.73;;;;;26.60;100325.00;;;;2080122;28;20371;-58
2021/06/22 00:06:54;;;;;;;1.10;0.80;;;;;26.60;100334.00;;;;2079946;28;20214;-60
2021/06/22 00:07:55;;;;;;;0.90;0.90;;;;;26.60;100341.00;;;;2080120;28;20217;-58
2021/06/22 00:08:55;;;;;;;1.33;0.83;;;;;26.60;100338.00;;;;2076252;28;20206;-58
2021/06/22 00:09:56;;;;;;;0.93;0.77;;;;;26.60;100350.00;;;;2080251;28;20456;-57
2021/06/22 00:10:56;;;;;;;0.77;0.73;;;;;26.60;100349.00;;;;2074724;28;20218;-57
2021/06/22 00:11:56;;;;;;;0.90;0.90;;;;;26.60;100343.00;;;;2078876;28;20217;-59
2021/06/22 00:12:57;;;;;;;1.13;0.90;;;;;26.60;100346.00;;;;2075906;28;20210;-57
2021/06/22 00:13:58;;;;;;;0.90;0.90;;;;;26.60;100344.00;;;;2072004;28;20555;-57
2021/06/22 00:14:58;;;;;;;0.90;0.90;;;;;26.60;100335.00;;;;2077056;28;20435;-65
2021/06/22 00:15:59;;;;;;;1.57;1.00;;;;;26.60;100340.00;;;;2073843;28;20465;-63
2021/06/22 00:16:59;;;;;;;1.27;1.10;;;;;26.60;100339.00;;;;2071857;28;20209;-60
2021/06/22 00:17:59;;;;;;;0.70;0.70;;;;;26.60;100323.00;;;;2076401;28;20208;-58
2021/06/22 00:19:00;;;;;;;0.90;0.90;;;;;26.60;100334.00;;;;2079941;28;20809;-58
2021/06/22 00:20:00;;;;;;;1.10;1.00;;;;;26.60;100326.00;;;;2079610;28;20217;-58
2021/06/22 00:21:00;;;;;;;0.90;0.90;;;;;26.60;100336.00;;;;2078725;28;20213;-57
2021/06/22 00:22:01;;;;;;;1.00;0.90;;;;;26.60;100324.00;;;;2079004;28;20734;-58
2021/06/22 00:23:02;;;;;;;1.30;0.80;;;;;26.60;100320.00;;;;2079741;28;20558;-58
2021/06/22 00:24:02;;;;;;;1.00;0.90;;;;;26.60;100322.00;;;;2081346;28;20750;-58
2021/06/22 00:25:04;;;;;;;1.00;0.90;;;;;26.60;100311.00;;;;2075655;28;20221;-58
2021/06/22 00:26:04;;;;;;;1.07;0.90;;;;;26.60;100312.00;;;;2076658;28;20579;-58
2021/06/22 00:27:05;;;;;;;1.03;0.97;;;;;26.60;100309.00;;;;2078350;28;20452;-59
2021/06/22 00:28:05;;;;;;;1.40;1.00;;;;;26.60;100315.00;;;;2077862;28;20256;-58
2021/06/22 00:29:06;;;;;;;1.43;1.10;;;;;26.60;100318.00;;;;2077070;28;20223;-57
2021/06/22 00:30:07;;;;;;;1.13;1.03;;;;;26.60;100319.00;;;;2080397;28;20293;-57
2021/06/22 00:31:07;;;;;;;1.37;1.10;;;;;26.60;100319.00;;;;2078810;28;20302;-58
2021/06/22 00:32:08;;;;;;;0.90;0.80;;;;;26.60;100319.00;;;;2079877;28;20620;-57
2021/06/22 00:33:08;;;;;;;1.30;0.80;;;;;26.60;100319.00;;;;2079973;28;20254;-57
2021/06/22 00:34:08;;;;;;;1.03;0.93;;;;;26.60;100330.00;;;;2077716;28;20267;-58
2021/06/22 00:35:09;;;;;;;1.00;1.00;;;;;26.60;100325.00;;;;2071853;28;20222;-58
2021/06/22 00:36:09;;;;;;;1.10;1.00;;;;;26.60;100333.00;;;;2080054;28;20630;-57
2021/06/22 00:37:09;;;;;;;1.07;1.00;;;;;26.60;100324.00;;;;2080476;28;20225;-59
2021/06/22 00:38:10;;;;;;;0.73;0.73;;;;;26.60;100320.00;;;;2079083;28;20205;-58
2021/06/22 00:39:10;;;;;;;0.83;0.67;;;;;26.60;100319.00;;;;2072929;28;20211;-58
2021/06/22 00:40:11;;;;;;;0.90;0.90;;;;;26.60;100305.00;;;;2077923;28;20215;-58
2021/06/22 00:41:12;;;;;;;1.10;1.00;;;;;26.60;100309.00;;;;2073695;28;20264;-58
2021/06/22 00:42:12;;;;;;;1.60;0.93;;;;;26.60;100287.00;;;;2072692;28;20449;-58
2021/06/22 00:43:13;;;;;;;1.00;0.90;;;;;26.60;100288.00;;;;2076321;28;20344;-57
2021/06/22 00:44:13;;;;;;;0.87;0.87;;;;;26.60;100292.00;;;;2063547;28;20461;-57
2021/06/22 00:45:15;;;;;;;1.70;1.03;;;;;26.60;100294.00;;;;2088859;28;20209;-57
2021/06/22 00:46:16;;;;;;;1.20;1.10;;;;;26.60;100305.00;;;;2090222;28;20287;-57
2021/06/22 00:47:16;;;;;;;0.90;0.90;;;;;26.60;100300.00;;;;2071419;28;20454;-57
2021/06/22 00:48:17;;;;;;;1.13;0.97;;;;;26.60;100310.00;;;;2079146;28;20578;-58
2021/06/22 00:49:17;;;;;;;1.13;0.93;;;;;26.60;100312.00;;;;2078956;28;21017;-58
2021/06/22 00:50:17;;;;;;;1.17;1.07;;;;;26.60;100302.00;;;;2077381;28;20604;-63
2021/06/22 00:51:18;;;;;;;1.07;0.97;;;;;26.60;100302.00;;;;2072615;28;21290;-63
2021/06/22 00:52:26;;;;;;;1.20;1.00;;;;;26.60;100297.00;;;;2073630;28;20312;-59
2021/06/22 00:53:26;;;;;;;1.20;1.10;;;;;26.60;100302.00;;;;2070932;28;20218;-57
2021/06/22 00:54:27;;;;;;;0.80;0.80;;;;;26.60;100293.00;;;;2071295;28;20532;-57
2021/06/22 00:55:32;;;;;;;1.30;1.20;;;;;26.60;100293.00;;;;2078343;28;20713;-57
2021/06/22 00:56:32;;;;;;;1.07;0.97;;;;;26.60;100299.00;;;;2077673;28;20225;-60
2021/06/22 00:57:33;;;;;;;1.37;1.27;;;;;26.60;100305.00;;;;2075499;28;20535;-58
2021/06/22 00:58:33;;;;;;;0.93;0.90;;;;;26.60;100308.00;;;;2079723;28;20639;-58
2021/06/22 00:59:34;;;;;;;1.23;1.10;;;;;26.60;100307.00;;;;2079541;28;20639;-58
2021/06/22 01:00:39;;;;;;;1.27;1.10;;;;;26.60;100311.00;;;;2078611;28;20579;-57
2021/06/22 01:01:39;;;;;;;1.00;0.80;;;;;26.40;100314.00;;;;2073093;28;21044;-58
2021/06/22 01:02:40;;;;;;;1.20;1.07;;;;;26.60;100313.00;;;;2079676;28;20479;-56
2021/06/22 01:03:40;;;;;;;1.20;1.10;;;;;26.60;100316.00;;;;2076141;28;20218;-57
2021/06/22 01:04:40;;;;;;;1.33;1.00;;;;;26.60;100316.00;;;;2072079;28;20604;-58
2021/06/22 01:05:41;;;;;;;1.63;1.20;;;;;26.60;100314.00;;;;2079584;28;20668;-58
2021/06/22 01:06:41;;;;;;;1.63;1.50;;;;;26.60;100312.00;;;;2074245;28;20221;-58
2021/06/22 01:07:42;;;;;;;1.17;0.90;;;;;26.60;100317.00;;;;2074326;28;20603;-57
2021/06/22 01:08:42;;;;;;;1.10;1.00;;;;;26.60;100332.00;;;;2078989;28;20209;-58
2021/06/22 01:09:42;;;;;;;1.17;1.07;;;;;26.60;100325.00;;;;2079056;28;20209;-58
2021/06/22 01:10:43;;;;;;;0.97;0.97;;;;;26.60;100333.00;;;;2071182;28;20676;-58
2021/06/22 01:11:43;;;;;;;1.10;1.00;;;;;26.60;100332.00;;;;2078179;28;20613;-57
2021/06/22 01:12:43;;;;;;;1.53;1.13;;;;;26.60;100332.00;;;;2087316;28;20213;-58
2021/06/22 01:13:44;;;;;;;0.97;0.87;;;;;26.60;100335.00;;;;2087309;28;20275;-57
2021/06/22 01:14:45;;;;;;;1.37;0.93;;;;;26.60;100331.00;;;;2071599;28;20293;-58
2021/06/22 01:15:45;;;;;;;1.90;1.47;;;;;26.60;100331.00;;;;2071484;28;20210;-58
2021/06/22 01:16:46;;;;;;;1.63;0.90;;;;;26.60;100326.00;;;;2079127;28;20472;-58
2021/06/22 01:17:46;;;;;;;1.00;0.80;;;;;26.60;100334.00;;;;2080652;28;20657;-58
2021/06/22 01:18:46;;;;;;;1.37;1.27;;;;;26.60;100331.00;;;;2078252;28;20206;-59
2021/06/22 01:19:47;;;;;;;1.30;1.20;;;;;26.60;100332.00;;;;2071644;28;20206;-57
2021/06/22 01:20:47;;;;;;;2.30;1.03;;;;;26.60;100332.00;;;;2077944;28;20210;-57
2021/06/22 01:21:47;;;;;;;1.60;1.40;;;;;26.50;100334.00;;;;2071821;28;20662;-58
2021/06/22 01:22:48;;;;;;;1.00;0.90;;;;;26.50;100334.00;;;;2078724;28;20213;-58
2021/06/22 01:23:48;;;;;;;1.40;1.20;;;;;26.50;100336.00;;;;2070754;28;20209;-58
2021/06/22 01:24:49;;;;;;;1.00;0.90;;;;;26.50;100333.00;;;;2076363;28;20201;-61
2021/06/22 01:25:49;;;;;;;1.27;1.17;;;;;26.50;100322.00;;;;2071339;28;20726;-60
2021/06/22 01:26:55;;;;;;;0.93;0.90;;;;;26.50;100331.00;;;;2073919;28;20467;-58
2021/06/22 01:27:58;;;;;;;1.17;0.97;;;;;26.50;100331.00;;;;2079482;28;20552;-57
2021/06/22 01:28:58;;;;;;;1.20;1.10;;;;;26.50;100337.00;;;;2067853;28;20452;-64
2021/06/22 01:30:00;;;;;;;1.40;1.10;;;;;26.50;100326.00;;;;2076445;28;20320;-61
2021/06/22 01:31:00;;;;;;;1.00;1.00;;;;;26.60;100337.00;;;;2073944;28;20232;-58
2021/06/22 01:32:00;;;;;;;1.33;1.03;;;;;26.50;100344.00;;;;2077301;28;20520;-57
2021/06/22 01:33:01;;;;;;;1.83;1.20;;;;;26.60;100340.00;;;;2078841;28;20217;-58
2021/06/22 01:34:01;;;;;;;1.43;1.10;;;;;26.60;100335.00;;;;2071534;28;20698;-58
2021/06/22 01:35:02;;;;;;;1.30;1.20;;;;;26.50;100339.00;;;;2071384;28;20218;-58
2021/06/22 01:36:03;;;;;;;1.20;1.00;;;;;26.50;100334.00;;;;2072939;28;20222;-57
2021/06/22 01:37:07;;;;;;;1.33;1.20;;;;;26.60;100338.00;;;;2079273;28;20527;-57
2021/06/22 01:38:08;;;;;;;1.10;1.00;;;;;26.60;100334.00;;;;2073174;28;20225;-58
2021/06/22 01:39:12;;;;;;;1.23;1.13;;;;;26.50;100323.00;;;;2071224;28;20472;-57
2021/06/22 01:40:12;;;;;;;1.13;1.03;;;;;26.50;100321.00;;;;2072378;28;20211;-57
2021/06/22 01:41:13;;;;;;;1.07;0.97;;;;;26.50;100320.00;;;;2072960;28;20823;-57
2021/06/22 01:42:13;;;;;;;1.70;1.20;;;;;26.50;100307.00;;;;2073563;28;20261;-61
2021/06/22 01:43:13;;;;;;;0.97;0.97;;;;;26.50;100310.00;;;;2072555;28;20221;-57
2021/06/22 01:44:14;;;;;;;1.20;1.10;;;;;26.50;100305.00;;;;2080337;28;20206;-58
2021/06/22 01:45:15;;;;;;;1.10;1.00;;;;;26.50;100307.00;;;;2071884;28;20720;-58
2021/06/22 01:46:15;;;;;;;1.13;1.03;;;;;26.50;100314.00;;;;2079379;28;20206;-58
2021/06/22 01:47:16;;;;;;;1.10;1.00;;;;;26.50;100304.00;;;;2079354;28;20228;-57
2021/06/22 01:48:16;;;;;;;1.00;0.90;;;;;26.50;100304.00;;;;2079349;28;20293;-58
2021/06/22 01:49:16;;;;;;;1.93;1.20;;;;;26.50;100302.00;;;;2079204;28;20228;-57
2021/06/22 01:50:17;;;;;;;1.03;0.93;;;;;26.50;100302.00;;;;2079265;28;20615;-58
2021/06/22 01:51:17;;;;;;;1.30;1.20;;;;;26.50;100303.00;;;;2075187;28;20218;-57
2021/06/22 01:52:18;;;;;;;1.20;1.00;;;;;26.50;100310.00;;;;2076047;28;20263;-58
2021/06/22 01:53:18;;;;;;;1.40;1.30;;;;;26.50;100304.00;;;;2073249;28;20473;-57
2021/06/22 01:54:20;;;;;;;1.40;1.30;;;;;26.50;100302.00;;;;2072949;28;20214;-58
2021/06/22 01:55:37;;;;;;;1.03;0.93;;;;;26.50;100309.00;;;;2072155;28;20288;-58
2021/06/22 01:56:37;;;;;;;1.07;1.07;;;;;26.50;100304.00;;;;2071124;28;20476;-58
2021/06/22 01:57:38;;;;;;;1.43;1.30;;;;;26.50;100298.00;;;;2075413;28;20448;-58
2021/06/22 01:58:38;;;;;;;1.63;1.00;;;;;26.50;100305.00;;;;2072669;28;20458;-58
2021/06/22 01:59:40;;;;;;;0.80;0.80;;;;;26.50;100313.00;;;;2074675;28;20221;-58
2021/06/22 02:00:42;;;;;;;1.20;1.10;;;;;26.40;100309.00;;;;2072333;28;20296;-58
2021/06/22 02:01:42;;;;;;;1.30;1.20;;;;;26.50;100307.00;;;;2072610;28;20279;-58
2021/06/22 02:02:43;;;;;;;1.07;0.97;;;;;26.50;100310.00;;;;2069955;28;20592;-58
2021/06/22 02:03:43;;;;;;;1.47;1.10;;;;;26.50;100312.00;;;;2071142;28;20679;-59
2021/06/22 02:04:44;;;;;;;1.17;1.07;;;;;26.50;100311.00;;;;2078132;28;20733;-62
2021/06/22 02:05:45;;;;;;;1.10;1.00;;;;;26.50;100303.00;;;;2072585;28;20555;-57
2021/06/22 02:06:47;;;;;;;1.20;1.10;;;;;26.50;100314.00;;;;2072393;28;20457;-61
2021/06/22 02:07:48;;;;;;;1.30;1.00;;;;;26.50;100310.00;;;;2077175;28;20483;-64
2021/06/22 02:08:48;;;;;;;1.00;0.90;;;;;26.50;100313.00;;;;2074893;28;21009;-60
2021/06/22 02:09:48;;;;;;;1.20;1.10;;;;;26.50;100311.00;;;;2074395;28;20286;-57
2021/06/22 02:10:49;;;;;;;0.90;0.90;;;;;26.50;100295.00;;;;2079262;28;20209;-63
2021/06/22 02:11:49;;;;;;;0.80;0.80;;;;;26.50;100310.00;;;;2078522;28;20697;-60
2021/06/22 02:12:49;;;;;;;1.50;1.10;;;;;26.50;100313.00;;;;2080263;28;20224;-60
2021/06/22 02:13:50;;;;;;;0.90;0.90;;;;;26.50;100313.00;;;;2073766;28;20217;-59
2021/06/22 02:14:50;;;;;;;1.23;1.13;;;;;26.50;100305.00;;;;2070076;28;20718;-60
2021/06/22 02:15:50;;;;;;;1.00;0.80;;;;;26.50;100315.00;;;;2071016;28;20713;-59
2021/06/22 02:16:51;;;;;;;2.13;1.20;;;;;26.50;100311.00;;;;2078531;28;20224;-59
2021/06/22 02:17:51;;;;;;;1.27;1.17;;;;;26.50;100312.00;;;;2070565;28;20219;-56
2021/06/22 02:18:51;;;;;;;1.87;1.20;;;;;26.50;100317.00;;;;2077401;28;20709;-57
2021/06/22 02:19:52;;;;;;;1.07;0.97;;;;;26.50;100317.00;;;;2071384;28;20217;-59
2021/06/22 02:20:52;;;;;;;1.10;1.00;;;;;26.50;100320.00;;;;2073221;28;20675;-58
2021/06/22 02:21:53;;;;;;;1.00;0.83;;;;;26.50;100330.00;;;;2076248;28;20248;-57
2021/06/22 02:22:53;;;;;;;1.00;1.00;;;;;26.50;100317.00;;;;2077791;28;20580;-57
2021/06/22 02:23:54;;;;;;;1.20;1.10;;;;;26.50;100317.00;;;;2079445;28;20206;-58
2021/06/22 02:24:54;;;;;;;2.40;1.00;;;;;26.50;100314.00;;;;2075619;28;20404;-58
2021/06/22 02:25:54;;;;;;;1.37;1.17;;;;;26.50;100306.00;;;;2078213;28;20209;-58
2021/06/22 02:26:55;;;;;;;1.57;1.20;;;;;26.50;100316.00;;;;2078769;28;20701;-57
2021/06/22 02:28:18;;;;;;;1.20;1.00;;;;;26.50;100325.00;;;;2076656;28;20202;-57
2021/06/22 02:29:19;;;;;;;1.20;1.10;;;;;26.50;100318.00;;;;2070540;28;20260;-60
2021/06/22 02:30:20;;;;;;;1.27;1.17;;;;;26.50;100316.00;;;;2072732;28;20250;-60
2021/06/22 02:31:20;;;;;;;1.10;1.00;;;;;26.50;100317.00;;;;2079626;28;20264;-58
2021/06/22 02:32:20;;;;;;;1.27;1.00;;;;;26.50;100316.00;;;;2076409;28;20479;-60
2021/06/22 02:33:21;;;;;;;1.47;0.90;;;;;26.50;100318.00;;;;2072397;28;20584;-60
2021/06/22 02:34:21;;;;;;;1.33;0.93;;;;;26.50;100314.00;;;;2072209;28;20269;-58
2021/06/22 02:35:21;;;;;;;1.30;1.20;;;;;26.50;100317.00;;;;2073039;28;20589;-57
2021/06/22 02:36:24;;;;;;;1.10;1.00;;;;;26.50;100313.00;;;;2075811;28;20279;-57
2021/06/22 02:37:24;;;;;;;1.43;1.00;;;;;26.50;100311.00;;;;2079861;28;20206;-57
2021/06/22 02:38:25;;;;;;;1.37;1.03;;;;;26.50;100324.00;;;;2070570;28;20460;-56
2021/06/22 02:39:25;;;;;;;1.10;1.00;;;;;26.50;100330.00;;;;2073447;28;20214;-56
2021/06/22 02:40:26;;;;;;;1.00;0.90;;;;;26.50;100332.00;;;;2078139;28;20573;-57
2021/06/22 02:41:26;;;;;;;0.80;0.77;;;;;26.50;100331.00;;;;2078001;28;20872;-58
2021/06/22 02:42:27;;;;;;;1.30;1.07;;;;;26.50;100323.00;;;;2081774;28;20460;-62
2021/06/22 02:43:27;;;;;;;1.77;1.00;;;;;26.50;100335.00;;;;2072650;28;20210;-57
2021/06/22 02:44:27;;;;;;;1.60;1.30;;;;;26.50;100333.00;;;;2080748;28;20214;-57
2021/06/22 02:45:28;;;;;;;1.50;1.20;;;;;26.50;100324.00;;;;2075454;28;20735;-57
2021/06/22 02:46:29;;;;;;;1.60;1.07;;;;;26.40;100326.00;;;;2077940;28;20641;-60
2021/06/22 02:47:29;;;;;;;1.30;1.07;;;;;26.40;100332.00;;;;2079896;28;20313;-61
2021/06/22 02:48:29;;;;;;;1.07;0.97;;;;;26.50;100332.00;;;;2072805;28;20220;-58
2021/06/22 02:49:30;;;;;;;1.10;1.00;;;;;26.50;100330.00;;;;2073332;28;20222;-57
2021/06/22 02:50:30;;;;;;;1.63;1.50;;;;;26.50;100331.00;;;;2071999;28;20218;-58
2021/06/22 02:51:30;;;;;;;1.00;0.80;;;;;26.40;100330.00;;;;2075110;28;20255;-58
2021/06/22 02:52:31;;;;;;;0.90;0.90;;;;;26.40;100330.00;;;;2077539;28;20267;-58
2021/06/22 02:53:31;;;;;;;1.03;0.87;;;;;26.50;100335.00;;;;2090134;28;20228;-58
2021/06/22 02:54:33;;;;;;;1.50;1.00;;;;;26.50;100316.00;;;;2080040;28;20225;-57
2021/06/22 02:55:34;;;;;;;1.33;1.17;;;;;26.50;100323.00;;;;2072868;28;20561;-57
2021/06/22 02:56:34;;;;;;;1.23;0.90;;;;;26.40;100335.00;;;;2073044;28;20467;-58
2021/06/22 02:57:34;;;;;;;1.23;1.13;;;;;26.40;100319.00;;;;2080668;28;20217;-57
2021/06/22 02:58:36;;;;;;;1.23;1.00;;;;;26.40;100335.00;;;;2079177;28;20217;-58
2021/06/22 02:59:37;;;;;;;1.40;1.30;;;;;26.40;100335.00;;;;2076984;28;20221;-58
2021/06/22 03:00:38;;;;;;;1.33;1.00;;;;;26.40;100331.00;;;;2072441;28;20449;-59
2021/06/22 03:01:38;;;;;;;1.10;1.00;;;;;26.40;100339.00;;;;2079251;28;20459;-58
2021/06/22 03:02:38;;;;;;;1.43;1.10;;;;;26.40;100337.00;;;;2075963;28;20325;-58
2021/06/22 03:03:39;;;;;;;1.33;1.00;;;;;26.40;100336.00;;;;2076347;28;20220;-59
2021/06/22 03:04:39;;;;;;;1.17;1.07;;;;;26.40;100337.00;;;;2072458;28;20214;-58
2021/06/22 03:05:39;;;;;;;1.70;1.60;;;;;26.40;100335.00;;;;2072448;28;20305;-58
2021/06/22 03:06:40;;;;;;;1.80;1.20;;;;;26.40;100337.00;;;;2072297;28;20214;-58
2021/06/22 03:07:40;;;;;;;1.03;0.93;;;;;26.40;100336.00;;;;2080093;28;20264;-58
2021/06/22 03:08:40;;;;;;;1.53;1.30;;;;;26.40;100341.00;;;;2079554;28;20217;-58
2021/06/22 03:09:42;;;;;;;1.50;0.97;;;;;26.40;100345.00;;;;2077225;28;20316;-57
2021/06/22 03:10:42;;;;;;;1.50;1.30;;;;;26.40;100335.00;;;;2078201;28;20220;-58
2021/06/22 03:11:43;;;;;;;1.33;1.10;;;;;26.40;100342.00;;;;2079654;28;20876;-57
2021/06/22 03:12:43;;;;;;;1.13;1.00;;;;;26.40;100342.00;;;;2073372;28;20254;-58
2021/06/22 03:13:43;;;;;;;1.00;0.90;;;;;26.40;100344.00;;;;2072411;28;20694;-57
2021/06/22 03:14:44;;;;;;;1.30;1.03;;;;;26.40;100344.00;;;;2072509;28;20626;-58
2021/06/22 03:15:44;;;;;;;2.10;1.43;;;;;26.40;100346.00;;;;2073794;28;20306;-57
2021/06/22 03:16:45;;;;;;;1.37;1.07;;;;;26.40;100350.00;;;;2074703;28;20296;-58
2021/06/22 03:17:45;;;;;;;0.97;0.80;;;;;26.40;100341.00;;;;2076229;28;20291;-58
2021/06/22 03:18:46;;;;;;;1.20;1.10;;;;;26.40;100348.00;;;;2072066;28;20349;-58
2021/06/22 03:19:46;;;;;;;1.30;1.20;;;;;26.40;100344.00;;;;2076102;28;20543;-56
2021/06/22 03:20:47;;;;;;;1.30;1.20;;;;;26.40;100348.00;;;;2082273;28;20218;-58
2021/06/22 03:21:47;;;;;;;1.70;1.10;;;;;26.40;100340.00;;;;2078427;28;20206;-57
2021/06/22 03:22:48;;;;;;;1.33;1.10;;;;;26.40;100348.00;;;;2073164;28;20213;-58
2021/06/22 03:23:49;;;;;;;1.40;1.30;;;;;26.40;100340.00;;;;2072523;28;20240;-58
2021/06/22 03:24:49;;;;;;;1.43;1.07;;;;;26.40;100339.00;;;;2075147;28;20228;-57
2021/06/22 03:25:49;;;;;;;1.20;0.97;;;;;26.40;100336.00;;;;2079823;28;20527;-57
2021/06/22 03:26:50;;;;;;;1.00;0.90;;;;;26.40;100341.00;;;;2068272;28;20214;-57
2021/06/22 03:27:50;;;;;;;1.30;1.20;;;;;26.40;100344.00;;;;2080329;28;20217;-58
2021/06/22 03:28:50;;;;;;;1.20;0.90;;;;;26.40;100338.00;;;;2080052;28;20682;-57
2021/06/22 03:29:51;;;;;;;1.63;0.90;;;;;26.40;100341.00;;;;2072349;28;20578;-57
2021/06/22 03:30:51;;;;;;;1.37;0.97;;;;;26.40;100343.00;;;;2076012;28;20210;-58
2021/06/22 03:31:51;;;;;;;1.10;1.00;;;;;26.40;100343.00;;;;2071588;28;20214;-58
2021/06/22 03:32:52;;;;;;;1.13;1.03;;;;;26.40;100349.00;;;;2071491;28;20214;-57
2021/06/22 03:33:52;;;;;;;1.23;1.13;;;;;26.40;100347.00;;;;2076492;28;20222;-57
2021/06/22 03:34:53;;;;;;;1.20;1.00;;;;;26.40;100345.00;;;;2077520;28;20213;-57
2021/06/22 03:35:53;;;;;;;1.40;1.23;;;;;26.40;100361.00;;;;2077717;28;20267;-57
2021/06/22 03:36:53;;;;;;;1.50;1.20;;;;;26.40;100352.00;;;;2077963;28;20224;-57
2021/06/22 03:37:54;;;;;;;1.20;1.10;;;;;26.40;100348.00;;;;2069563;28;20210;-57
2021/06/22 03:38:54;;;;;;;2.37;1.30;;;;;26.40;100347.00;;;;2072337;28;20585;-62
2021/06/22 03:39:55;;;;;;;1.17;1.07;;;;;26.40;100361.00;;;;2080328;28;20209;-58
2021/06/22 03:40:55;;;;;;;1.20;1.00;;;;;26.40;100359.00;;;;2079840;28;20220;-57
2021/06/22 03:41:55;;;;;;;1.73;1.10;;;;;26.40;100358.00;;;;2078955;28;20233;-56
2021/06/22 03:42:56;;;;;;;2.70;1.20;;;;;26.40;100362.00;;;;2076461;28;20582;-57
2021/06/22 03:43:56;;;;;;;1.10;1.00;;;;;26.40;100360.00;;;;2072692;28;20234;-59
2021/06/22 03:44:56;;;;;;;2.20;1.10;;;;;26.40;100365.00;;;;2076490;28;20214;-58
2021/06/22 03:45:57;;;;;;;1.27;1.10;;;;;26.40;100369.00;;;;2079556;28;20259;-58
2021/06/22 03:46:57;;;;;;;1.23;1.13;;;;;26.40;100365.00;;;;2075854;28;20218;-58
2021/06/22 03:47:58;;;;;;;1.57;1.10;;;;;26.40;100362.00;;;;2075133;28;20220;-58
2021/06/22 03:48:58;;;;;;;1.33;1.10;;;;;26.40;100372.00;;;;2077873;28;20297;-58
2021/06/22 03:49:58;;;;;;;1.63;1.03;;;;;26.40;100381.00;;;;2076429;28;20253;-59
2021/06/22 03:50:59;;;;;;;1.90;1.10;;;;;26.40;100374.00;;;;2078419;28;20960;-59
2021/06/22 03:51:59;;;;;;;1.80;1.20;;;;;26.40;100370.00;;;;2078718;28;20225;-58
2021/06/22 03:53:00;;;;;;;1.00;0.90;;;;;26.40;100366.00;;;;2077961;28;20237;-57
2021/06/22 03:54:00;;;;;;;1.30;1.20;;;;;26.40;100365.00;;;;2075340;28;20232;-57
2021/06/22 03:55:00;;;;;;;1.10;0.87;;;;;26.40;100361.00;;;;2073058;28;20217;-57
2021/06/22 03:56:01;;;;;;;1.20;1.10;;;;;26.40;100364.00;;;;2074878;28;20617;-57
2021/06/22 03:57:01;;;;;;;1.40;1.00;;;;;26.40;100357.00;;;;2079934;28;20744;-57
2021/06/22 03:58:04;;;;;;;2.00;1.17;;;;;26.40;100357.00;;;;2072600;28;20646;-57
2021/06/22 03:59:04;;;;;;;1.13;1.03;;;;;26.30;100358.00;;;;2074457;28;20681;-60
2021/06/22 04:00:05;;;;;;;0.93;0.83;;;;;26.40;100359.00;;;;2077847;28;20452;-59
2021/06/22 04:01:05;;;;;;;1.53;1.10;;;;;26.40;100362.00;;;;2079104;28;20693;-57
2021/06/22 04:02:06;;;;;;;1.17;1.07;;;;;26.30;100364.00;;;;2080136;28;20524;-57
2021/06/22 04:03:06;;;;;;;1.37;1.10;;;;;26.40;100366.00;;;;2068579;28;20327;-57
2021/06/22 04:04:07;;;;;;;1.17;1.03;;;;;26.30;100362.00;;;;2062790;28;20217;-57
2021/06/22 04:05:07;;;;;;;1.17;0.90;;;;;26.40;100372.00;;;;2087383;28;20575;-62
2021/06/22 04:06:08;;;;;;;1.83;1.20;;;;;26.40;100374.00;;;;2088763;28;20615;-58
2021/06/22 04:07:08;;;;;;;1.50;1.20;;;;;26.30;100372.00;;;;2076395;28;20234;-57
2021/06/22 04:08:08;;;;;;;1.83;1.23;;;;;26.30;100371.00;;;;2076355;28;20242;-57
2021/06/22 04:09:09;;;;;;;1.30;1.20;;;;;26.40;100380.00;;;;2071813;28;20227;-60
2021/06/22 04:10:10;;;;;;;1.10;1.00;;;;;26.40;100375.00;;;;2076818;28;20214;-59
2021/06/22 04:11:10;;;;;;;1.47;1.37;;;;;26.40;100371.00;;;;2072522;28;20317;-58
2021/06/22 04:12:11;;;;;;;1.70;1.33;;;;;26.40;100370.00;;;;2079818;28;20444;-58
2021/06/22 04:13:11;;;;;;;1.43;1.00;;;;;26.40;100374.00;;;;2077521;28;20269;-59
2021/06/22 04:14:12;;;;;;;1.33;1.20;;;;;26.40;100380.00;;;;2078631;28;20691;-59
2021/06/22 04:15:12;;;;;;;1.10;1.00;;;;;26.40;100377.00;;;;2080122;28;20259;-58
2021/06/22 04:16:13;;;;;;;1.23;1.07;;;;;26.40;100373.00;;;;2080092;28;20197;-58
2021/06/22 04:17:13;;;;;;;1.97;1.13;;;;;26.40;100379.00;;;;2081773;28;20222;-58
2021/06/22 04:18:13;;;;;;;1.40;1.30;;;;;26.40;100375.00;;;;2080112;28;20301;-58
2021/06/22 04:19:14;;;;;;;2.27;1.07;;;;;26.40;100335.00;;;;2080077;28;20255;-59
2021/06/22 04:20:14;;;;;;;1.20;1.10;;;;;26.40;100379.00;;;;2073387;28;20210;-59
2021/06/22 04:21:14;;;;;;;1.23;1.13;;;;;26.40;100382.00;;;;2071346;28;20202;-58
2021/06/22 04:22:15;;;;;;;1.87;0.93;;;;;26.40;100376.00;;;;2075612;28;20202;-58
2021/06/22 04:23:15;;;;;;;1.83;1.23;;;;;26.40;100374.00;;;;2073950;28;20210;-57
2021/06/22 04:24:16;;;;;;;1.40;1.07;;;;;26.40;100377.00;;;;2075115;28;20217;-57
2021/06/22 04:25:16;;;;;;;1.87;1.20;;;;;26.40;100388.00;;;;2079036;28;20588;-58
2021/06/22 04:26:17;;;;;;;1.40;1.10;;;;;26.40;100383.00;;;;2064512;28;20260;-57
2021/06/22 04:27:17;;;;;;;1.80;1.13;;;;;26.40;100390.00;;;;2087327;28;20658;-58
2021/06/22 04:28:18;;;;;;;1.57;1.30;;;;;26.40;100387.00;;;;2089068;28;20207;-58
2021/06/22 04:29:18;;;;;;;1.33;1.03;;;;;26.40;100388.00;;;;2079517;28;20225;-60
2021/06/22 04:30:19;;;;;;;1.63;0.90;;;;;26.40;100384.00;;;;2079328;28;20300;-59
2021/06/22 04:31:19;;;;;;;2.07;1.33;;;;;26.40;100392.00;;;;2072679;28;20222;-61
2021/06/22 04:32:19;;;;;;;1.60;1.27;;;;;26.40;100396.00;;;;2077737;28;20328;-60
2021/06/22 04:33:20;;;;;;;1.13;1.00;;;;;26.30;100409.00;;;;2080698;28;20218;-59
2021/06/22 04:34:20;;;;;;;2.30;1.40;;;;;26.40;100396.00;;;;2079215;28;20217;-58
2021/06/22 04:35:20;;;;;;;1.13;1.03;;;;;26.40;100399.00;;;;2078250;28;20221;-59
2021/06/22 04:36:21;;;;;;;1.50;1.17;;;;;26.30;100394.00;;;;2071546;28;20218;-59
2021/06/22 04:37:21;;;;;;;1.43;1.30;;;;;26.40;100395.00;;;;2071559;28;20214;-58
2021/06/22 04:38:22;;;;;;;1.30;1.20;;;;;26.40;100362.00;;;;2070770;28;20280;-58
2021/06/22 04:39:22;;;;;;;1.20;1.07;;;;;26.30;100398.00;;;;2077916;28;20708;-59
2021/06/22 04:40:23;;;;;;;1.20;1.10;;;;;26.40;100392.00;;;;2075938;28;20209;-59
2021/06/22 04:41:23;;;;;;;1.60;1.37;;;;;26.40;100391.00;;;;2080671;28;20213;-59
2021/06/22 04:42:23;;;;;;;1.30;1.20;;;;;26.40;100395.00;;;;2071681;28;20285;-57
2021/06/22 04:43:24;;;;;;;1.43;1.00;;;;;26.40;100383.00;;;;2077268;28;20291;-57
2021/06/22 04:44:24;;;;;;;1.40;1.10;;;;;26.30;100388.00;;;;2075671;28;20217;-63
2021/06/22 04:45:24;;;;;;;3.70;1.13;;;;;26.40;100388.00;;;;2073201;28;20229;-59
2021/06/22 04:46:25;;;;;;;1.33;1.10;;;;;26.30;100387.00;;;;2071295;28;20265;-57
2021/06/22 04:47:25;;;;;;;1.30;1.20;;;;;26.30;100384.00;;;;2071516;28;20214;-56
2021/06/22 04:48:26;;;;;;;2.30;1.20;;;;;26.30;100386.00;;;;2071658;28;20214;-57
2021/06/22 04:49:26;;;;;;;2.30;1.27;;;;;26.30;100389.00;;;;2071278;28;20218;-58
2021/06/22 04:50:26;;;;;;;1.80;1.20;;;;;26.40;100386.00;;;;2077586;28;20301;-62
2021/06/22 04:51:27;;;;;;;1.13;1.03;;;;;26.30;100378.00;;;;2079341;28;20210;-58
2021/06/22 04:52:27;;;;;;;1.20;1.10;;;;;26.40;100390.00;;;;2076525;28;20207;-58
2021/06/22 04:53:28;;;;;;;1.70;1.30;;;;;26.30;100385.00;;;;2073745;28;20293;-57
2021/06/22 04:54:28;;;;;;;1.50;1.07;;;;;26.30;100385.00;;;;2072237;28;20222;-57
2021/06/22 04:55:28;;;;;;;2.00;1.10;;;;;26.30;100352.00;;;;2074486;28;20237;-63
2021/06/22 04:56:29;;;;;;;1.73;1.30;;;;;26.30;100381.00;;;;2071516;28;21125;-64
2021/06/22 04:57:29;;;;;;;2.37;1.30;;;;;26.30;100386.00;;;;2071595;28;20218;-60
2021/06/22 04:58:30;;;;;;;1.00;0.87;;;;;26.30;100387.00;;;;2071560;28;20644;-59
2021/06/22 04:59:35;;;;;;;1.27;1.07;;;;;26.30;100378.00;;;;2071524;28;20683;-60
2021/06/22 05:00:35;;;;;;;1.30;1.20;;;;;26.30;100387.00;;;;2077043;28;20984;-57